sensor_id;sensor_type;location;lat;lon;timestamp;pressure;altitude;pressure_sealevel;temperature;humidity
3544;BME280;1786;52.870;9.578;2023-07-16T00:01:05;99972.44;;;31.68;47.23
3544;BME280;1786;52.870;9.578;2023-07-16T00:03:32;99970.41;;;31.41;48.01
3544;BME280;1786;52.870;9.578;2023-07-16T00:05:59;99961.97;;;31.43;47.74
3544;BME280;1786;52.870;9.578;2023-07-16T00:08:25;99980.72;;;31.73;47.26
3544;BME280;1786;52.870;9.578;2023-07-16T00:10:52;99985.53;;;31.66;47.37
3544;BME280;1786;52.870;9.578;2023-07-16T00:13:19;99999.78;;;31.68;47.04
3544;BME280;1786;52.870;9.578;2023-07-16T00:15:45;99988.53;;;31.47;47.25
3544;BME280;1786;52.870;9.578;2023-07-16T00:18:12;99981.97;;;31.65;47.17
3544;BME280;1786;52.870;9.578;2023-07-16T00:20:40;99976.25;;;31.67;47.04
3544;BME280;1786;52.870;9.578;2023-07-16T00:23:07;99952.47;;;31.45;47.14
3544;BME280;1786;52.870;9.578;2023-07-16T00:25:33;99937.25;;;31.72;46.73
3544;BME280;1786;52.870;9.578;2023-07-16T00:28:01;99941.91;;;31.71;46.84
3544;BME280;1786;52.870;9.578;2023-07-16T00:30:31;99944.94;;;31.75;46.70
3544;BME280;1786;52.870;9.578;2023-07-16T00:32:58;99941.91;;;31.71;46.56
3544;BME280;1786;52.870;9.578;2023-07-16T00:35:25;99956.78;;;31.80;46.52
3544;BME280;1786;52.870;9.578;2023-07-16T00:37:52;99945.75;;;31.75;46.35
3544;BME280;1786;52.870;9.578;2023-07-16T00:40:19;99933.78;;;31.59;46.82
3544;BME280;1786;52.870;9.578;2023-07-16T00:42:46;99928.69;;;31.63;46.68
3544;BME280;1786;52.870;9.578;2023-07-16T00:45:13;99938.19;;;31.60;46.73
3544;BME280;1786;52.870;9.578;2023-07-16T00:47:42;99969.53;;;31.75;46.51
3544;BME280;1786;52.870;9.578;2023-07-16T00:50:11;99982.28;;;31.69;46.57
3544;BME280;1786;52.870;9.578;2023-07-16T00:52:38;99970.72;;;31.62;46.79
3544;BME280;1786;52.870;9.578;2023-07-16T00:55:06;99981.91;;;31.43;47.13
3544;BME280;1786;52.870;9.578;2023-07-16T00:57:33;99999.19;;;31.49;46.87
3544;BME280;1786;52.870;9.578;2023-07-16T01:00:00;99996.47;;;31.66;46.75
3544;BME280;1786;52.870;9.578;2023-07-16T01:02:27;99987.69;;;31.30;47.17
3544;BME280;1786;52.870;9.578;2023-07-16T01:04:55;99987.69;;;31.30;47.20
3544;BME280;1786;52.870;9.578;2023-07-16T01:07:24;99984.44;;;31.16;47.47
3544;BME280;1786;52.870;9.578;2023-07-16T01:09:53;99972.63;;;31.44;47.11
3544;BME280;1786;52.870;9.578;2023-07-16T01:12:22;99962.94;;;31.54;46.77
3544;BME280;1786;52.870;9.578;2023-07-16T01:14:51;99970.78;;;31.67;46.62
3544;BME280;1786;52.870;9.578;2023-07-16T01:17:18;99996.31;;;31.56;46.63
3544;BME280;1786;52.870;9.578;2023-07-16T01:19:45;100008.06;;;31.56;46.68
3544;BME280;1786;52.870;9.578;2023-07-16T01:22:28;99999.25;;;31.37;47.07
3544;BME280;1786;52.870;9.578;2023-07-16T01:27:59;100011.91;;;30.81;48.16
3544;BME280;1786;52.870;9.578;2023-07-16T01:30:30;99999.44;;;30.56;48.60
3544;BME280;1786;52.870;9.578;2023-07-16T01:32:57;99995.38;;;30.71;48.33
3544;BME280;1786;52.870;9.578;2023-07-16T01:35:24;100006.38;;;30.47;48.84
3544;BME280;1786;52.870;9.578;2023-07-16T01:37:51;100015.28;;;30.43;48.90
3544;BME280;1786;52.870;9.578;2023-07-16T01:40:19;100019.09;;;30.70;48.72
3544;BME280;1786;52.870;9.578;2023-07-16T01:42:45;100041.28;;;30.22;49.60
3544;BME280;1786;52.870;9.578;2023-07-16T01:45:13;100024.81;;;29.93;50.34
3544;BME280;1786;52.870;9.578;2023-07-16T01:50:58;100036.00;;;30.84;48.36
3544;BME280;1786;52.870;9.578;2023-07-16T01:53:25;100036.94;;;30.90;48.42
3544;BME280;1786;52.870;9.578;2023-07-16T01:55:52;100036.97;;;30.78;48.31
3544;BME280;1786;52.870;9.578;2023-07-16T01:58:20;100019.31;;;30.69;48.56
3544;BME280;1786;52.870;9.578;2023-07-16T02:00:49;100025.91;;;30.56;48.81
3544;BME280;1786;52.870;9.578;2023-07-16T02:03:16;100023.44;;;30.54;48.73
3544;BME280;1786;52.870;9.578;2023-07-16T02:05:43;100022.72;;;30.76;48.38
3544;BME280;1786;52.870;9.578;2023-07-16T02:08:10;100018.91;;;30.60;48.92
3544;BME280;1786;52.870;9.578;2023-07-16T02:10:37;100022.44;;;30.60;49.20
3544;BME280;1786;52.870;9.578;2023-07-16T02:13:04;100028.28;;;30.81;48.86
3544;BME280;1786;52.870;9.578;2023-07-16T02:15:30;100015.81;;;30.56;49.51
3544;BME280;1786;52.870;9.578;2023-07-16T02:17:57;100008.44;;;30.28;49.94
3544;BME280;1786;52.870;9.578;2023-07-16T02:20:24;99997.56;;;30.57;49.75
3544;BME280;1786;52.870;9.578;2023-07-16T02:22:51;99998.50;;;30.62;49.49
3544;BME280;1786;52.870;9.578;2023-07-16T02:25:18;99988.59;;;30.73;49.17
3544;BME280;1786;52.870;9.578;2023-07-16T02:27:46;99981.31;;;30.79;49.18
3544;BME280;1786;52.870;9.578;2023-07-16T02:30:17;99989.91;;;30.71;49.15
3544;BME280;1786;52.870;9.578;2023-07-16T02:32:44;99982.91;;;30.75;49.00
3544;BME280;1786;52.870;9.578;2023-07-16T02:35:11;99989.56;;;30.96;48.49
3544;BME280;1786;52.870;9.578;2023-07-16T02:37:38;99989.97;;;30.88;48.37
3544;BME280;1786;52.870;9.578;2023-07-16T02:40:06;99986.97;;;30.89;48.15
3544;BME280;1786;52.870;9.578;2023-07-16T02:42:33;99994.78;;;30.69;48.68
3544;BME280;1786;52.870;9.578;2023-07-16T02:44:59;99986.56;;;30.52;48.93
3544;BME280;1786;52.870;9.578;2023-07-16T02:47:26;99999.00;;;30.59;48.22
3544;BME280;1786;52.870;9.578;2023-07-16T02:49:54;99986.41;;;30.30;48.60
3544;BME280;1786;52.870;9.578;2023-07-16T02:52:21;99992.91;;;30.29;48.85
3544;BME280;1786;52.870;9.578;2023-07-16T02:54:48;100000.75;;;30.13;48.73
3544;BME280;1786;52.870;9.578;2023-07-16T02:57:15;100007.38;;;30.06;48.77
3544;BME280;1786;52.870;9.578;2023-07-16T02:59:42;100013.78;;;30.11;48.60
3544;BME280;1786;52.870;9.578;2023-07-16T03:02:08;100006.88;;;30.20;48.41
3544;BME280;1786;52.870;9.578;2023-07-16T03:04:35;100008.81;;;30.08;48.52
3544;BME280;1786;52.870;9.578;2023-07-16T03:07:03;100013.41;;;30.31;48.22
3544;BME280;1786;52.870;9.578;2023-07-16T03:09:30;100022.03;;;30.40;47.91
3544;BME280;1786;52.870;9.578;2023-07-16T03:11:57;100028.03;;;29.90;48.92
3544;BME280;1786;52.870;9.578;2023-07-16T03:14:24;100015.22;;;29.79;48.81
3544;BME280;1786;52.870;9.578;2023-07-16T03:16:51;100020.56;;;29.97;48.69
3544;BME280;1786;52.870;9.578;2023-07-16T03:19:18;100021.16;;;29.75;48.91
3544;BME280;1786;52.870;9.578;2023-07-16T03:21:45;100025.66;;;30.05;48.62
3544;BME280;1786;52.870;9.578;2023-07-16T03:24:12;100028.09;;;30.18;48.42
3544;BME280;1786;52.870;9.578;2023-07-16T03:26:39;100037.84;;;30.26;48.29
3544;BME280;1786;52.870;9.578;2023-07-16T03:29:06;100041.97;;;30.17;48.86
3544;BME280;1786;52.870;9.578;2023-07-16T03:31:32;100032.78;;;29.83;49.89
3544;BME280;1786;52.870;9.578;2023-07-16T03:34:00;100040.94;;;29.71;50.24
3544;BME280;1786;52.870;9.578;2023-07-16T03:36:29;100035.00;;;30.09;49.77
3544;BME280;1786;52.870;9.578;2023-07-16T03:38:59;100037.72;;;30.33;49.21
3544;BME280;1786;52.870;9.578;2023-07-16T03:41:26;100050.75;;;30.31;49.13
3544;BME280;1786;52.870;9.578;2023-07-16T03:43:53;100059.06;;;30.12;49.39
3544;BME280;1786;52.870;9.578;2023-07-16T03:46:20;100055.63;;;29.93;49.75
3544;BME280;1786;52.870;9.578;2023-07-16T03:48:47;100063.91;;;30.10;49.59
3544;BME280;1786;52.870;9.578;2023-07-16T03:51:14;100053.81;;;30.23;49.45
3544;BME280;1786;52.870;9.578;2023-07-16T03:53:41;100061.06;;;30.17;49.26
3544;BME280;1786;52.870;9.578;2023-07-16T03:56:07;100068.50;;;30.33;49.03
3544;BME280;1786;52.870;9.578;2023-07-16T03:58:35;100067.69;;;30.33;49.09
3544;BME280;1786;52.870;9.578;2023-07-16T04:01:04;100084.50;;;30.18;49.65
3544;BME280;1786;52.870;9.578;2023-07-16T04:03:31;100084.53;;;30.30;49.43
3544;BME280;1786;52.870;9.578;2023-07-16T04:06:05;100081.31;;;30.33;49.50
3544;BME280;1786;52.870;9.578;2023-07-16T04:08:32;100091.03;;;30.05;50.06
3544;BME280;1786;52.870;9.578;2023-07-16T04:10:59;100087.94;;;30.13;50.16
3544;BME280;1786;52.870;9.578;2023-07-16T04:13:26;100088.66;;;29.73;50.98
3544;BME280;1786;52.870;9.578;2023-07-16T04:16:12;100090.81;;;29.95;50.23
3544;BME280;1786;52.870;9.578;2023-07-16T04:18:39;100088.31;;;29.82;50.96
3544;BME280;1786;52.870;9.578;2023-07-16T04:21:28;100094.59;;;30.17;49.95
3544;BME280;1786;52.870;9.578;2023-07-16T04:23:55;100088.81;;;30.14;50.21
3544;BME280;1786;52.870;9.578;2023-07-16T04:26:22;100091.63;;;30.07;50.17
3544;BME280;1786;52.870;9.578;2023-07-16T04:28:49;100095.66;;;30.16;50.20
3544;BME280;1786;52.870;9.578;2023-07-16T04:31:16;100093.88;;;30.10;50.36
3544;BME280;1786;52.870;9.578;2023-07-16T04:33:43;100110.22;;;30.10;50.40
3544;BME280;1786;52.870;9.578;2023-07-16T04:36:11;100106.19;;;29.77;50.87
3544;BME280;1786;52.870;9.578;2023-07-16T04:38:37;100115.69;;;30.10;50.38
3544;BME280;1786;52.870;9.578;2023-07-16T04:41:04;100114.16;;;30.03;50.73
3544;BME280;1786;52.870;9.578;2023-07-16T04:43:31;100115.31;;;30.18;50.33
3544;BME280;1786;52.870;9.578;2023-07-16T04:49:06;100117.31;;;30.11;50.60
3544;BME280;1786;52.870;9.578;2023-07-16T04:51:33;100115.44;;;30.12;50.56
3544;BME280;1786;52.870;9.578;2023-07-16T04:54:00;100118.16;;;30.24;50.31
3544;BME280;1786;52.870;9.578;2023-07-16T04:56:26;100126.25;;;30.07;50.62
3544;BME280;1786;52.870;9.578;2023-07-16T04:58:53;100131.81;;;30.12;50.58
3544;BME280;1786;52.870;9.578;2023-07-16T05:01:20;100141.03;;;30.11;50.48
3544;BME280;1786;52.870;9.578;2023-07-16T05:03:47;100144.94;;;30.62;49.93
3544;BME280;1786;52.870;9.578;2023-07-16T05:06:14;100144.41;;;30.25;50.15
3544;BME280;1786;52.870;9.578;2023-07-16T05:08:41;100140.91;;;29.82;50.90
3544;BME280;1786;52.870;9.578;2023-07-16T05:11:08;100144.34;;;30.01;50.78
3544;BME280;1786;52.870;9.578;2023-07-16T05:13:34;100146.25;;;29.89;51.11
3544;BME280;1786;52.870;9.578;2023-07-16T05:16:01;100156.19;;;29.95;50.90
3544;BME280;1786;52.870;9.578;2023-07-16T05:18:28;100154.78;;;30.04;50.89
3544;BME280;1786;52.870;9.578;2023-07-16T05:20:55;100161.03;;;29.81;51.29
3544;BME280;1786;52.870;9.578;2023-07-16T05:23:22;100167.78;;;29.90;51.15
3544;BME280;1786;52.870;9.578;2023-07-16T05:25:49;100172.03;;;29.74;51.77
3544;BME280;1786;52.870;9.578;2023-07-16T05:28:18;100172.56;;;30.18;51.14
3544;BME280;1786;52.870;9.578;2023-07-16T05:30:44;100169.44;;;30.97;49.83
3544;BME280;1786;52.870;9.578;2023-07-16T05:33:11;100180.56;;;31.82;48.68
3544;BME280;1786;52.870;9.578;2023-07-16T05:35:39;100169.25;;;33.29;45.52
3544;BME280;1786;52.870;9.578;2023-07-16T05:38:06;100187.31;;;34.54;43.02
3544;BME280;1786;52.870;9.578;2023-07-16T05:40:33;100186.66;;;34.36;43.20
3544;BME280;1786;52.870;9.578;2023-07-16T05:43:00;100177.75;;;33.87;42.70
3544;BME280;1786;52.870;9.578;2023-07-16T05:45:29;100184.63;;;34.59;42.32
3544;BME280;1786;52.870;9.578;2023-07-16T05:47:55;100180.47;;;34.56;43.18
3544;BME280;1786;52.870;9.578;2023-07-16T05:50:22;100190.41;;;35.25;41.51
3544;BME280;1786;52.870;9.578;2023-07-16T05:52:49;100185.03;;;36.12;40.01
3544;BME280;1786;52.870;9.578;2023-07-16T05:55:16;100190.19;;;36.50;38.76
3544;BME280;1786;52.870;9.578;2023-07-16T05:57:43;100193.47;;;37.27;37.97
3544;BME280;1786;52.870;9.578;2023-07-16T06:00:10;100186.28;;;36.71;37.34
3544;BME280;1786;52.870;9.578;2023-07-16T06:02:38;100188.38;;;37.50;37.25
3544;BME280;1786;52.870;9.578;2023-07-16T06:05:05;100186.56;;;37.74;36.46
3544;BME280;1786;52.870;9.578;2023-07-16T06:07:32;100203.22;;;38.27;36.21
3544;BME280;1786;52.870;9.578;2023-07-16T06:09:59;100206.81;;;38.81;34.97
3544;BME280;1786;52.870;9.578;2023-07-16T06:12:26;100206.34;;;38.50;34.67
3544;BME280;1786;52.870;9.578;2023-07-16T06:14:53;100208.34;;;38.92;34.37
3544;BME280;1786;52.870;9.578;2023-07-16T06:17:19;100211.34;;;39.39;33.99
3544;BME280;1786;52.870;9.578;2023-07-16T06:19:46;100221.50;;;39.63;33.40
3544;BME280;1786;52.870;9.578;2023-07-16T06:22:16;100226.28;;;38.95;33.47
3544;BME280;1786;52.870;9.578;2023-07-16T06:24:43;100232.78;;;39.47;33.46
3544;BME280;1786;52.870;9.578;2023-07-16T06:27:10;100231.59;;;38.91;33.11
3544;BME280;1786;52.870;9.578;2023-07-16T06:29:37;100234.38;;;39.10;32.68
3544;BME280;1786;52.870;9.578;2023-07-16T06:32:04;100230.69;;;39.39;32.45
3544;BME280;1786;52.870;9.578;2023-07-16T06:34:32;100243.84;;;39.47;32.44
3544;BME280;1786;52.870;9.578;2023-07-16T06:36:59;100234.75;;;39.47;33.15
3544;BME280;1786;52.870;9.578;2023-07-16T06:39:26;100243.84;;;40.18;32.31
3544;BME280;1786;52.870;9.578;2023-07-16T06:41:53;100231.25;;;39.74;32.06
3544;BME280;1786;52.870;9.578;2023-07-16T06:44:22;100238.47;;;39.37;32.79
3544;BME280;1786;52.870;9.578;2023-07-16T06:46:48;100239.63;;;39.31;32.38
3544;BME280;1786;52.870;9.578;2023-07-16T06:49:15;100240.44;;;39.12;33.32
3544;BME280;1786;52.870;9.578;2023-07-16T06:51:42;100245.34;;;38.97;32.27
3544;BME280;1786;52.870;9.578;2023-07-16T06:54:08;100237.88;;;38.44;31.63
3544;BME280;1786;52.870;9.578;2023-07-16T06:56:36;100234.75;;;37.42;33.04
3544;BME280;1786;52.870;9.578;2023-07-16T06:59:02;100223.78;;;35.85;35.54
3544;BME280;1786;52.870;9.578;2023-07-16T07:01:29;100226.25;;;35.71;35.57
3544;BME280;1786;52.870;9.578;2023-07-16T07:03:56;100224.34;;;35.97;35.85
3544;BME280;1786;52.870;9.578;2023-07-16T07:06:22;100226.84;;;36.30;34.84
3544;BME280;1786;52.870;9.578;2023-07-16T07:08:51;100228.16;;;35.66;36.16
3544;BME280;1786;52.870;9.578;2023-07-16T07:11:18;100226.38;;;34.29;38.57
3544;BME280;1786;52.870;9.578;2023-07-16T07:13:46;100226.22;;;34.88;38.97
3544;BME280;1786;52.870;9.578;2023-07-16T07:16:12;100223.66;;;35.29;37.73
3544;BME280;1786;52.870;9.578;2023-07-16T07:18:40;100225.56;;;35.18;37.49
3544;BME280;1786;52.870;9.578;2023-07-16T07:21:06;100213.38;;;33.54;39.42
3544;BME280;1786;52.870;9.578;2023-07-16T07:23:33;100218.69;;;33.93;39.53
3544;BME280;1786;52.870;9.578;2023-07-16T07:26:00;100217.09;;;32.99;40.15
3544;BME280;1786;52.870;9.578;2023-07-16T07:28:27;100222.69;;;33.80;40.20
3544;BME280;1786;52.870;9.578;2023-07-16T07:30:54;100231.47;;;34.95;38.72
3544;BME280;1786;52.870;9.578;2023-07-16T07:33:21;100237.25;;;35.66;37.10
3544;BME280;1786;52.870;9.578;2023-07-16T07:35:48;100238.91;;;36.29;35.52
3544;BME280;1786;52.870;9.578;2023-07-16T07:38:15;100236.16;;;36.59;36.03
3544;BME280;1786;52.870;9.578;2023-07-16T07:40:45;100249.94;;;36.18;35.23
3544;BME280;1786;52.870;9.578;2023-07-16T07:43:12;100251.47;;;35.58;35.14
3544;BME280;1786;52.870;9.578;2023-07-16T07:45:38;100243.56;;;34.14;36.31
3544;BME280;1786;52.870;9.578;2023-07-16T07:48:05;100235.50;;;34.39;36.39
3544;BME280;1786;52.870;9.578;2023-07-16T07:50:32;100235.53;;;34.82;35.36
3544;BME280;1786;52.870;9.578;2023-07-16T07:52:58;100245.13;;;34.79;35.62
3544;BME280;1786;52.870;9.578;2023-07-16T07:55:25;100244.53;;;35.30;35.61
3544;BME280;1786;52.870;9.578;2023-07-16T07:57:52;100244.44;;;36.08;34.96
3544;BME280;1786;52.870;9.578;2023-07-16T08:00:19;100247.97;;;35.83;33.88
3544;BME280;1786;52.870;9.578;2023-07-16T08:02:46;100254.56;;;35.77;33.90
3544;BME280;1786;52.870;9.578;2023-07-16T08:05:13;100259.06;;;35.25;35.16
3544;BME280;1786;52.870;9.578;2023-07-16T08:07:40;100252.63;;;35.67;34.55
3544;BME280;1786;52.870;9.578;2023-07-16T08:10:07;100268.78;;;35.48;33.88
3544;BME280;1786;52.870;9.578;2023-07-16T08:12:33;100261.31;;;34.38;35.45
3544;BME280;1786;52.870;9.578;2023-07-16T08:15:00;100271.00;;;34.88;34.98
3544;BME280;1786;52.870;9.578;2023-07-16T08:17:27;100270.84;;;34.03;35.51
3544;BME280;1786;52.870;9.578;2023-07-16T08:19:54;100280.69;;;34.26;35.41
3544;BME280;1786;52.870;9.578;2023-07-16T08:22:21;100278.22;;;33.98;36.10
3544;BME280;1786;52.870;9.578;2023-07-16T08:24:53;100280.66;;;33.45;36.11
3544;BME280;1786;52.870;9.578;2023-07-16T08:27:20;100291.56;;;34.16;36.04
3544;BME280;1786;52.870;9.578;2023-07-16T08:29:46;100292.88;;;34.41;35.19
3544;BME280;1786;52.870;9.578;2023-07-16T08:32:13;100298.19;;;34.53;34.28
3544;BME280;1786;52.870;9.578;2023-07-16T08:34:40;100294.38;;;35.01;35.01
3544;BME280;1786;52.870;9.578;2023-07-16T08:37:06;100279.34;;;35.92;34.00
3544;BME280;1786;52.870;9.578;2023-07-16T08:39:33;100291.50;;;36.22;32.82
3544;BME280;1786;52.870;9.578;2023-07-16T08:42:01;100297.25;;;36.51;32.80
3544;BME280;1786;52.870;9.578;2023-07-16T08:44:29;100306.00;;;35.71;31.97
3544;BME280;1786;52.870;9.578;2023-07-16T08:46:56;100307.66;;;35.93;32.25
3544;BME280;1786;52.870;9.578;2023-07-16T08:49:25;100310.50;;;34.87;33.75
3544;BME280;1786;52.870;9.578;2023-07-16T08:51:51;100302.59;;;35.49;34.09
3544;BME280;1786;52.870;9.578;2023-07-16T08:54:21;100299.38;;;35.72;33.97
3544;BME280;1786;52.870;9.578;2023-07-16T08:56:48;100306.19;;;35.54;32.34
3544;BME280;1786;52.870;9.578;2023-07-16T08:59:17;100310.22;;;34.52;33.74
3544;BME280;1786;52.870;9.578;2023-07-16T09:01:46;100312.69;;;34.80;33.33
3544;BME280;1786;52.870;9.578;2023-07-16T09:04:13;100314.69;;;35.53;33.93
3544;BME280;1786;52.870;9.578;2023-07-16T09:06:40;100306.25;;;35.65;32.31
3544;BME280;1786;52.870;9.578;2023-07-16T09:09:07;100308.81;;;36.38;32.69
3544;BME280;1786;52.870;9.578;2023-07-16T09:11:34;100311.22;;;37.11;32.08
3544;BME280;1786;52.870;9.578;2023-07-16T09:14:03;100326.28;;;37.34;30.99
3544;BME280;1786;52.870;9.578;2023-07-16T09:16:33;100311.00;;;36.51;30.89
3544;BME280;1786;52.870;9.578;2023-07-16T09:19:09;100323.31;;;35.77;31.10
3544;BME280;1786;52.870;9.578;2023-07-16T09:21:37;100322.47;;;35.66;31.54
3544;BME280;1786;52.870;9.578;2023-07-16T09:24:09;100305.56;;;34.89;31.37
3544;BME280;1786;52.870;9.578;2023-07-16T09:26:37;100313.72;;;33.82;32.00
3544;BME280;1786;52.870;9.578;2023-07-16T09:29:07;100321.16;;;33.87;32.77
3544;BME280;1786;52.870;9.578;2023-07-16T09:31:34;100306.47;;;33.98;32.31
3544;BME280;1786;52.870;9.578;2023-07-16T09:34:01;100319.50;;;34.40;32.85
3544;BME280;1786;52.870;9.578;2023-07-16T09:36:28;100318.75;;;34.50;33.01
3544;BME280;1786;52.870;9.578;2023-07-16T09:38:56;100319.94;;;34.32;32.26
3544;BME280;1786;52.870;9.578;2023-07-16T09:41:24;100317.63;;;33.92;32.65
3544;BME280;1786;52.870;9.578;2023-07-16T09:43:51;100321.84;;;34.04;32.34
3544;BME280;1786;52.870;9.578;2023-07-16T09:46:17;100335.47;;;34.48;32.85
3544;BME280;1786;52.870;9.578;2023-07-16T09:48:45;100341.06;;;34.32;33.12
3544;BME280;1786;52.870;9.578;2023-07-16T09:51:12;100334.41;;;33.95;33.07
3544;BME280;1786;52.870;9.578;2023-07-16T09:53:41;100339.88;;;34.55;32.46
3544;BME280;1786;52.870;9.578;2023-07-16T09:56:11;100345.34;;;34.50;33.35
3544;BME280;1786;52.870;9.578;2023-07-16T09:58:39;100343.63;;;34.38;32.97
3544;BME280;1786;52.870;9.578;2023-07-16T10:01:07;100342.25;;;34.09;33.40
3544;BME280;1786;52.870;9.578;2023-07-16T10:03:35;100343.56;;;34.06;32.47
3544;BME280;1786;52.870;9.578;2023-07-16T10:06:07;100339.66;;;33.53;33.76
3544;BME280;1786;52.870;9.578;2023-07-16T10:08:35;100353.59;;;34.17;32.41
3544;BME280;1786;52.870;9.578;2023-07-16T10:11:02;100347.91;;;33.75;33.38
3544;BME280;1786;52.870;9.578;2023-07-16T10:13:29;100350.03;;;34.54;32.37
3544;BME280;1786;52.870;9.578;2023-07-16T10:15:57;100360.75;;;35.30;32.31
3544;BME280;1786;52.870;9.578;2023-07-16T10:18:31;100351.63;;;34.45;32.19
3544;BME280;1786;52.870;9.578;2023-07-16T10:21:05;100341.53;;;34.51;32.85
3544;BME280;1786;52.870;9.578;2023-07-16T10:23:42;100352.69;;;35.08;32.75
3544;BME280;1786;52.870;9.578;2023-07-16T10:26:11;100356.91;;;35.26;31.39
3544;BME280;1786;52.870;9.578;2023-07-16T10:28:44;100352.81;;;34.92;32.28
3544;BME280;1786;52.870;9.578;2023-07-16T10:31:21;100357.19;;;34.87;32.40
3544;BME280;1786;52.870;9.578;2023-07-16T10:34:21;100358.69;;;34.09;33.51
3544;BME280;1786;52.870;9.578;2023-07-16T10:36:50;100354.56;;;34.65;32.81
3544;BME280;1786;52.870;9.578;2023-07-16T10:39:17;100361.59;;;34.02;32.88
3544;BME280;1786;52.870;9.578;2023-07-16T10:41:44;100349.22;;;33.99;32.21
3544;BME280;1786;52.870;9.578;2023-07-16T10:44:14;100355.06;;;34.30;33.12
3544;BME280;1786;52.870;9.578;2023-07-16T10:46:42;100359.75;;;35.04;32.48
3544;BME280;1786;52.870;9.578;2023-07-16T10:49:09;100364.06;;;36.01;31.94
3544;BME280;1786;52.870;9.578;2023-07-16T10:51:35;100375.84;;;35.28;31.94
3544;BME280;1786;52.870;9.578;2023-07-16T10:54:02;100372.50;;;35.68;32.51
3544;BME280;1786;52.870;9.578;2023-07-16T10:56:35;100367.06;;;35.84;30.61
3544;BME280;1786;52.870;9.578;2023-07-16T10:59:03;100382.16;;;35.71;31.12
3544;BME280;1786;52.870;9.578;2023-07-16T11:01:33;100380.31;;;36.02;31.78
3544;BME280;1786;52.870;9.578;2023-07-16T11:04:00;100372.59;;;35.89;31.21
3544;BME280;1786;52.870;9.578;2023-07-16T11:06:27;100378.56;;;35.75;30.83
3544;BME280;1786;52.870;9.578;2023-07-16T11:08:54;100382.19;;;35.81;31.19
3544;BME280;1786;52.870;9.578;2023-07-16T11:11:29;100372.69;;;36.50;31.28
3544;BME280;1786;52.870;9.578;2023-07-16T11:13:57;100381.78;;;36.56;29.80
3544;BME280;1786;52.870;9.578;2023-07-16T11:16:23;100374.25;;;36.05;31.23
3544;BME280;1786;52.870;9.578;2023-07-16T11:18:51;100380.50;;;35.80;30.99
3544;BME280;1786;52.870;9.578;2023-07-16T11:21:20;100378.75;;;36.47;30.63
3544;BME280;1786;52.870;9.578;2023-07-16T11:23:47;100387.97;;;35.85;30.49
3544;BME280;1786;52.870;9.578;2023-07-16T11:26:14;100377.53;;;35.29;31.75
3544;BME280;1786;52.870;9.578;2023-07-16T11:28:42;100384.66;;;35.83;31.23
3544;BME280;1786;52.870;9.578;2023-07-16T11:31:14;100380.44;;;35.60;31.48
3544;BME280;1786;52.870;9.578;2023-07-16T11:33:47;100384.19;;;35.01;31.79
3544;BME280;1786;52.870;9.578;2023-07-16T11:36:14;100386.63;;;35.35;30.87
3544;BME280;1786;52.870;9.578;2023-07-16T11:38:43;100396.50;;;34.93;32.47
3544;BME280;1786;52.870;9.578;2023-07-16T11:41:10;100374.53;;;34.93;32.14
3544;BME280;1786;52.870;9.578;2023-07-16T11:43:40;100387.91;;;35.22;30.76
3544;BME280;1786;52.870;9.578;2023-07-16T11:46:15;100377.50;;;34.54;32.66
3544;BME280;1786;52.870;9.578;2023-07-16T11:48:43;100376.94;;;34.84;31.83
3544;BME280;1786;52.870;9.578;2023-07-16T11:51:09;100382.34;;;34.15;32.25
3544;BME280;1786;52.870;9.578;2023-07-16T11:53:36;100379.81;;;34.67;31.63
3544;BME280;1786;52.870;9.578;2023-07-16T11:56:05;100390.03;;;35.57;32.00
3544;BME280;1786;52.870;9.578;2023-07-16T11:58:32;100393.00;;;34.65;31.80
3544;BME280;1786;52.870;9.578;2023-07-16T12:00:59;100391.19;;;35.14;32.00
3544;BME280;1786;52.870;9.578;2023-07-16T12:03:25;100395.69;;;34.98;32.30
3544;BME280;1786;52.870;9.578;2023-07-16T12:05:52;100396.16;;;34.84;31.88
3544;BME280;1786;52.870;9.578;2023-07-16T12:08:20;100386.88;;;35.33;31.79
3544;BME280;1786;52.870;9.578;2023-07-16T12:10:46;100404.22;;;34.37;32.03
3544;BME280;1786;52.870;9.578;2023-07-16T12:13:13;100406.94;;;34.59;32.73
3544;BME280;1786;52.870;9.578;2023-07-16T12:15:40;100401.03;;;34.77;31.80
3544;BME280;1786;52.870;9.578;2023-07-16T12:18:07;100406.06;;;35.28;32.04
3544;BME280;1786;52.870;9.578;2023-07-16T12:20:34;100406.31;;;34.84;32.48
3544;BME280;1786;52.870;9.578;2023-07-16T12:23:02;100413.19;;;34.86;31.67
3544;BME280;1786;52.870;9.578;2023-07-16T12:25:29;100410.91;;;34.73;32.15
3544;BME280;1786;52.870;9.578;2023-07-16T12:27:56;100404.38;;;34.84;32.52
3544;BME280;1786;52.870;9.578;2023-07-16T12:30:24;100423.34;;;35.18;32.35
3544;BME280;1786;52.870;9.578;2023-07-16T12:32:51;100407.13;;;34.84;32.24
3544;BME280;1786;52.870;9.578;2023-07-16T12:35:18;100420.00;;;34.79;32.05
3544;BME280;1786;52.870;9.578;2023-07-16T12:37:45;100414.81;;;34.82;31.75
3544;BME280;1786;52.870;9.578;2023-07-16T12:40:12;100427.28;;;35.00;31.77
3544;BME280;1786;52.870;9.578;2023-07-16T12:42:39;100425.41;;;34.68;32.18
3544;BME280;1786;52.870;9.578;2023-07-16T12:45:06;100427.47;;;34.29;31.85
3544;BME280;1786;52.870;9.578;2023-07-16T12:47:33;100433.44;;;34.75;32.00
3544;BME280;1786;52.870;9.578;2023-07-16T12:50:00;100435.09;;;35.08;31.67
3544;BME280;1786;52.870;9.578;2023-07-16T12:52:27;100436.94;;;35.45;31.54
3544;BME280;1786;52.870;9.578;2023-07-16T12:54:54;100451.72;;;35.29;31.65
3544;BME280;1786;52.870;9.578;2023-07-16T12:57:24;100442.63;;;35.23;32.10
3544;BME280;1786;52.870;9.578;2023-07-16T12:59:50;100426.97;;;35.71;31.55
3544;BME280;1786;52.870;9.578;2023-07-16T13:02:17;100439.41;;;35.42;30.91
3544;BME280;1786;52.870;9.578;2023-07-16T13:04:43;100448.94;;;35.24;31.68
3544;BME280;1786;52.870;9.578;2023-07-16T13:07:10;100433.78;;;35.16;31.83
3544;BME280;1786;52.870;9.578;2023-07-16T13:09:37;100436.53;;;35.16;31.87
3544;BME280;1786;52.870;9.578;2023-07-16T13:12:03;100433.91;;;35.89;31.68
3544;BME280;1786;52.870;9.578;2023-07-16T13:14:30;100441.34;;;35.94;31.76
3544;BME280;1786;52.870;9.578;2023-07-16T13:16:57;100445.88;;;35.63;30.95
3544;BME280;1786;52.870;9.578;2023-07-16T13:19:24;100450.66;;;35.88;31.51
3544;BME280;1786;52.870;9.578;2023-07-16T13:21:52;100452.47;;;36.25;30.99
3544;BME280;1786;52.870;9.578;2023-07-16T13:24:19;100445.06;;;36.30;30.79